createdAt,value
2023-02-24T00:02:04.455Z,100755.06
2023-02-24T00:04:39.908Z,100761.22
2023-02-24T00:07:10.505Z,100755.66
2023-02-24T00:09:39.285Z,100757.22
2023-02-24T00:12:13.135Z,100760.75
2023-02-24T00:14:43.328Z,100749.66
2023-02-24T00:17:14.458Z,100755.69
2023-02-24T00:19:42.436Z,100757.28
2023-02-24T00:22:10.252Z,100744.56
2023-02-24T00:24:37.840Z,100743.84
2023-02-24T00:27:11.972Z,100734.97
2023-02-24T00:29:41.825Z,100749.22
2023-02-24T00:32:12.822Z,100739.56
2023-02-24T00:34:43.540Z,100741.41
2023-02-24T00:37:12.120Z,100739.41
2023-02-24T00:39:41.884Z,100749.69
2023-02-24T00:42:11.891Z,100739.22
2023-02-24T00:44:43.844Z,100732.25
2023-02-24T00:47:12.172Z,100732.09
2023-02-24T00:49:44.391Z,100734.78
2023-02-24T00:52:22.316Z,100734.75
2023-02-24T00:54:50.771Z,100721.59
2023-02-24T00:57:20.526Z,100728.44
2023-02-24T00:59:48.136Z,100730.09
2023-02-24T01:02:16.044Z,100721.56
2023-02-24T01:04:46.084Z,100715.41
2023-02-24T01:07:14.615Z,100714.59
2023-02-24T01:09:44.252Z,100711.03
2023-02-24T01:12:22.173Z,100708.34
2023-02-24T01:14:52.628Z,100699.53
2023-02-24T01:17:21.587Z,100708.09
2023-02-24T01:19:50.411Z,100708.66
2023-02-24T01:22:20.231Z,100691.22
2023-02-24T01:24:48.881Z,100701.91
2023-02-24T01:27:19.079Z,100704.56
2023-02-24T01:29:48.083Z,100696.69
2023-02-24T01:32:19.342Z,100686.28
2023-02-24T01:34:47.914Z,100700.41
2023-02-24T01:37:16.586Z,100698.53
2023-02-24T01:39:45.395Z,100695.84
2023-02-24T01:42:19.824Z,100687.84
2023-02-24T01:44:48.020Z,100697.47
2023-02-24T01:47:20.854Z,100681.63
2023-02-24T01:49:52.773Z,100679.84
2023-02-24T01:52:24.427Z,100687.72
2023-02-24T01:54:58.118Z,100683.38
2023-02-24T01:57:31.393Z,100686.00
2023-02-24T02:00:02.080Z,100676.09
2023-02-24T02:02:30.101Z,100682.03
2023-02-24T02:05:03.922Z,100683.72
2023-02-24T02:07:31.686Z,100672.31
2023-02-24T02:10:04.213Z,100677.09
2023-02-24T02:12:37.253Z,100663.78
2023-02-24T02:15:06.669Z,100660.31
2023-02-24T02:17:49.013Z,100665.66
2023-02-24T02:20:22.401Z,100667.66
2023-02-24T02:23:14.597Z,100669.19
2023-02-24T02:26:11.480Z,100660.63
2023-02-24T02:29:28.715Z,100658.84
2023-02-24T02:31:56.235Z,100665.09
2023-02-24T02:34:27.664Z,100665.88
2023-02-24T02:37:10.134Z,100664.97
2023-02-24T02:39:58.892Z,100657.19
2023-02-24T02:42:44.263Z,100660.84
2023-02-24T02:45:47.818Z,100659.84
2023-02-24T02:48:41.251Z,100664.00
2023-02-24T02:51:11.861Z,100680.44
2023-02-24T02:53:49.487Z,100677.41
2023-02-24T02:56:22.212Z,100675.41
2023-02-24T02:58:55.294Z,100656.75
2023-02-24T03:01:28.547Z,100655.47
2023-02-24T03:04:05.833Z,100653.00
2023-02-24T03:06:53.256Z,100660.88
2023-02-24T03:09:26.258Z,100661.91
2023-02-24T03:12:02.214Z,100645.56
2023-02-24T03:14:40.009Z,100651.06
2023-02-24T03:17:21.672Z,100658.88
2023-02-24T03:19:54.987Z,100644.19
2023-02-24T03:22:41.177Z,100654.00
2023-02-24T03:25:10.755Z,100657.75
2023-02-24T03:27:49.421Z,100667.25
2023-02-24T03:30:27.759Z,100654.41
2023-02-24T03:33:06.713Z,100654.56
2023-02-24T03:35:42.128Z,100659.47
2023-02-24T03:38:11.816Z,100650.78
2023-02-24T03:40:43.463Z,100650.81
2023-02-24T03:43:22.294Z,100644.25
2023-02-24T03:45:50.342Z,100643.66
2023-02-24T03:48:17.886Z,100621.97
2023-02-24T03:50:46.776Z,100633.03
2023-02-24T03:53:53.375Z,100630.47
2023-02-24T03:56:47.057Z,100647.72
2023-02-24T03:59:52.957Z,100646.59
2023-02-24T04:02:30.039Z,100642.78
2023-02-24T04:05:20.736Z,100648.38
2023-02-24T04:08:08.884Z,100637.06
2023-02-24T04:10:52.636Z,100643.09
2023-02-24T04:13:49.513Z,100640.59
2023-02-24T04:16:28.995Z,100630.63
2023-02-24T04:19:05.531Z,100622.94
2023-02-24T04:21:38.589Z,100623.06
2023-02-24T04:24:11.679Z,100628.47
2023-02-24T04:26:42.962Z,100628.69
2023-02-24T04:29:17.774Z,100614.69
2023-02-24T04:31:50.297Z,100625.34
2023-02-24T04:34:20.339Z,100624.84
2023-02-24T04:36:50.064Z,100617.53
2023-02-24T04:39:20.872Z,100620.19
2023-02-24T04:41:52.337Z,100629.97
2023-02-24T04:44:21.478Z,100614.59
2023-02-24T04:46:50.496Z,100615.47
2023-02-24T04:49:20.394Z,100614.75
2023-02-24T04:51:47.834Z,100613.72
2023-02-24T04:54:19.933Z,100606.00
2023-02-24T04:56:50.894Z,100606.84
2023-02-24T04:59:19.590Z,100600.84
2023-02-24T05:01:51.721Z,100617.25
2023-02-24T05:04:19.497Z,100608.66
2023-02-24T05:06:47.471Z,100595.63
2023-02-24T05:09:18.084Z,100598.34
2023-02-24T05:11:49.165Z,100589.50
2023-02-24T05:14:20.742Z,100586.00
2023-02-24T05:16:49.306Z,100589.50
2023-02-24T05:19:38.606Z,100573.69
2023-02-24T05:22:07.303Z,100572.69
2023-02-24T05:24:35.047Z,100578.22
2023-02-24T05:27:03.947Z,100578.13
2023-02-24T05:29:34.865Z,100577.50
2023-02-24T05:32:04.689Z,100579.84
2023-02-24T05:34:33.541Z,100565.97
2023-02-24T05:37:04.506Z,100569.50
2023-02-24T05:39:31.915Z,100580.19
2023-02-24T05:42:06.210Z,100577.44
2023-02-24T05:44:35.769Z,100574.69
2023-02-24T05:47:05.603Z,100561.06
2023-02-24T05:49:35.085Z,100571.66
2023-02-24T05:52:10.216Z,100559.47
2023-02-24T05:54:40.781Z,100562.31
2023-02-24T05:57:12.064Z,100575.72
2023-02-24T05:59:41.350Z,100566.91
2023-02-24T06:02:13.020Z,100574.13
2023-02-24T06:04:54.175Z,100563.91
2023-02-24T06:07:28.426Z,100573.50
2023-02-24T06:10:00.229Z,100579.00
2023-02-24T06:12:33.965Z,100581.69
2023-02-24T06:15:10.326Z,100582.13
2023-02-24T06:17:37.814Z,100575.44
2023-02-24T06:20:14.833Z,100576.50
2023-02-24T06:22:42.671Z,100588.03
2023-02-24T06:25:14.223Z,100588.91
2023-02-24T06:27:43.217Z,100604.88
2023-02-24T06:30:15.361Z,100601.31
2023-02-24T06:32:43.196Z,100604.81
2023-02-24T06:35:12.822Z,100614.28
2023-02-24T06:37:41.198Z,100604.91
2023-02-24T06:40:17.695Z,100603.06
2023-02-24T06:42:52.326Z,100606.66
2023-02-24T06:45:20.277Z,100614.47
2023-02-24T06:47:48.944Z,100613.78
2023-02-24T06:50:21.939Z,100616.47
2023-02-24T06:52:50.732Z,100620.66
2023-02-24T06:55:27.533Z,100627.19
2023-02-24T06:58:04.481Z,100617.72
2023-02-24T07:01:07.424Z,100620.38
2023-02-24T07:04:37.752Z,100622.34
2023-02-24T07:07:18.844Z,100613.75
2023-02-24T07:10:02.894Z,100621.53
2023-02-24T07:13:03.203Z,100620.69
2023-02-24T07:15:37.660Z,100611.03
2023-02-24T07:18:17.481Z,100621.38
2023-02-24T07:20:48.503Z,100615.22
2023-02-24T07:23:25.919Z,100614.50
2023-02-24T07:26:04.631Z,100619.00
2023-02-24T07:28:48.211Z,100625.25
2023-02-24T07:31:27.308Z,100624.53
2023-02-24T07:33:57.445Z,100625.41
2023-02-24T07:36:30.157Z,100621.78
2023-02-24T07:38:59.218Z,100624.38
2023-02-24T07:41:26.919Z,100624.28
2023-02-24T07:43:55.475Z,100624.44
2023-02-24T07:46:25.800Z,100628.13
2023-02-24T07:48:59.353Z,100620.81
2023-02-24T07:51:28.252Z,100619.97
2023-02-24T07:53:59.144Z,100628.13
2023-02-24T07:56:29.346Z,100615.94
2023-02-24T07:59:01.994Z,100603.63
2023-02-24T08:01:39.229Z,100599.06
2023-02-24T08:04:12.543Z,100604.63
2023-02-24T08:06:47.864Z,100603.00
2023-02-24T08:09:21.155Z,100607.53
2023-02-24T08:11:56.816Z,100598.03
2023-02-24T08:14:27.454Z,100597.16
2023-02-24T08:17:23.220Z,100594.63
2023-02-24T08:20:10.166Z,100609.56
2023-02-24T08:22:46.990Z,100596.50
2023-02-24T08:29:12.467Z,100601.81
2023-02-24T08:31:40.348Z,100607.91
2023-02-24T08:37:48.544Z,100595.69
2023-02-24T08:40:32.971Z,100602.72
2023-02-24T08:43:25.548Z,100599.22
2023-02-24T08:48:56.446Z,100599.22
2023-02-24T08:51:35.086Z,100599.22
2023-02-24T08:54:16.930Z,100607.09
2023-02-24T08:56:49.286Z,100598.28
2023-02-24T08:59:37.181Z,100595.69
2023-02-24T09:02:18.875Z,100605.31
2023-02-24T09:04:52.596Z,100606.19
2023-02-24T09:07:35.638Z,100595.72
2023-02-24T09:10:04.920Z,100606.19
2023-02-24T09:12:32.315Z,100596.50
2023-02-24T09:15:04.701Z,100580.72
2023-02-24T09:17:49.809Z,100582.41
2023-02-24T09:20:44.933Z,100592.59
2023-02-24T09:23:20.263Z,100591.84
2023-02-24T09:25:50.820Z,100593.59
2023-02-24T09:28:29.279Z,100589.44
2023-02-24T09:31:00.452Z,100595.41
2023-02-24T09:33:38.849Z,100576.06
2023-02-24T09:36:20.331Z,100575.31
2023-02-24T09:38:59.384Z,100578.94
2023-02-24T09:41:54.971Z,100584.13
2023-02-24T09:44:44.371Z,100588.53
2023-02-24T09:47:42.648Z,100582.31
2023-02-24T09:50:14.219Z,100577.16
2023-02-24T09:52:42.003Z,100573.72
2023-02-24T09:55:25.200Z,100577.97
2023-02-24T09:58:27.033Z,100573.50
2023-02-24T10:01:34.375Z,100574.50
2023-02-24T10:04:29.293Z,100563.69
2023-02-24T10:07:03.115Z,100560.38
2023-02-24T10:09:41.501Z,100562.81
2023-02-24T10:12:24.080Z,100556.63
2023-02-24T10:15:18.625Z,100559.22
2023-02-24T10:17:55.583Z,100553.88
2023-02-24T10:20:40.258Z,100560.06
2023-02-24T10:23:29.638Z,100554.59
2023-02-24T10:26:07.762Z,100554.63
2023-02-24T10:28:46.367Z,100551.66
2023-02-24T10:31:35.932Z,100541.25
2023-02-24T10:34:09.951Z,100550.59
2023-02-24T10:36:37.997Z,100538.81
2023-02-24T10:39:17.365Z,100542.81
2023-02-24T10:41:57.412Z,100530.06
2023-02-24T10:44:36.473Z,100531.09
2023-02-24T10:47:13.706Z,100531.81
2023-02-24T10:49:57.498Z,100527.81
2023-02-24T10:52:51.117Z,100520.97
2023-02-24T10:55:50.340Z,100520.16
2023-02-24T10:58:40.596Z,100519.25
2023-02-24T11:01:41.064Z,100513.41
2023-02-24T11:04:33.681Z,100508.91
2023-02-24T11:07:13.388Z,100507.09
2023-02-24T11:09:45.626Z,100497.69
2023-02-24T11:12:43.630Z,100487.16
2023-02-24T11:15:41.349Z,100486.84
2023-02-24T11:18:18.436Z,100480.75
2023-02-24T11:20:50.248Z,100471.81
2023-02-24T11:23:25.969Z,100483.19
2023-02-24T11:25:59.185Z,100478.00
2023-02-24T11:28:59.609Z,100467.88
2023-02-24T11:31:39.017Z,100462.47
2023-02-24T11:34:20.644Z,100455.81
2023-02-24T11:37:04.220Z,100447.97
2023-02-24T11:39:53.598Z,100442.72
2023-02-24T11:42:46.170Z,100441.97
2023-02-24T11:45:25.239Z,100434.13
2023-02-24T11:48:01.058Z,100420.56
2023-02-24T11:50:46.553Z,100420.06
2023-02-24T11:53:26.209Z,100413.28
2023-02-24T11:56:05.301Z,100402.47
2023-02-24T11:59:10.076Z,100407.31
2023-02-24T12:02:00.233Z,100395.47
2023-02-24T12:04:51.149Z,100382.75
2023-02-24T12:07:29.387Z,100379.03
2023-02-24T12:10:15.687Z,100377.06
2023-02-24T12:13:05.716Z,100372.94
2023-02-24T12:15:44.157Z,100369.38
2023-02-24T12:18:27.212Z,100361.31
2023-02-24T12:21:30.648Z,100358.66
2023-02-24T12:23:59.113Z,100354.16
2023-02-24T12:26:42.811Z,100348.84
2023-02-24T12:29:16.173Z,100352.53
2023-02-24T12:32:03.029Z,100343.53
2023-02-24T12:34:30.466Z,100341.22
2023-02-24T12:37:16.415Z,100321.81
2023-02-24T12:39:46.701Z,100319.34
2023-02-24T12:42:29.055Z,100315.56
2023-02-24T12:45:24.320Z,100306.75
2023-02-24T12:48:14.353Z,100303.44
2023-02-24T12:50:50.652Z,100296.16
2023-02-24T12:53:38.014Z,100286.56
2023-02-24T12:56:25.661Z,100277.94
2023-02-24T12:59:00.122Z,100270.72
2023-02-24T13:01:50.007Z,100270.63
2023-02-24T13:04:54.394Z,100273.78
2023-02-24T13:07:41.635Z,100258.16
2023-02-24T13:10:14.777Z,100250.28
2023-02-24T13:12:45.820Z,100249.72
2023-02-24T13:15:25.776Z,100245.97
2023-02-24T13:17:57.773Z,100236.53
2023-02-24T13:20:36.897Z,100239.22
2023-02-24T13:23:22.076Z,100237.56
2023-02-24T13:25:55.534Z,100239.09
2023-02-24T13:28:27.081Z,100224.81
2023-02-24T13:31:05.906Z,100233.00
2023-02-24T13:33:39.240Z,100231.03
2023-02-24T13:36:15.589Z,100220.81
2023-02-24T13:38:46.223Z,100206.16
2023-02-24T13:41:22.924Z,100209.81
2023-02-24T13:44:17.367Z,100207.97
2023-02-24T13:47:03.451Z,100198.72
2023-02-24T13:49:43.349Z,100198.63
2023-02-24T13:52:42.910Z,100193.03
2023-02-24T13:55:48.160Z,100184.75
2023-02-24T13:58:33.710Z,100174.41
2023-02-24T14:01:11.326Z,100172.63
2023-02-24T14:04:35.197Z,100168.84
2023-02-24T14:06:35.028Z,100170.63
2023-02-24T14:09:04.948Z,100159.06
2023-02-24T14:11:37.824Z,100166.84
2023-02-24T14:14:05.769Z,100164.06
2023-02-24T14:16:38.467Z,100159.03
2023-02-24T14:19:14.526Z,100153.75
2023-02-24T14:21:59.046Z,100161.84
2023-02-24T14:24:27.987Z,100148.53
2023-02-24T14:26:59.443Z,100154.53
2023-02-24T14:29:43.145Z,100150.53
2023-02-24T14:32:29.437Z,100154.03
2023-02-24T14:34:57.491Z,100150.53
2023-02-24T14:37:30.725Z,100146.34
2023-02-24T14:40:00.678Z,100151.38
2023-02-24T14:42:29.345Z,100147.53
2023-02-24T14:44:59.412Z,100131.50
2023-02-24T14:47:28.953Z,100130.38
2023-02-24T14:50:04.702Z,100136.63
2023-02-24T14:52:49.957Z,100131.75
2023-02-24T14:55:23.656Z,100126.28
2023-02-24T14:58:01.878Z,100124.94
2023-02-24T15:00:35.304Z,100122.63
2023-02-24T15:03:25.341Z,100109.22
2023-02-24T15:05:55.552Z,100117.84
2023-02-24T15:08:43.430Z,100105.19
2023-02-24T15:11:16.753Z,100110.31
2023-02-24T15:13:51.401Z,100105.72
2023-02-24T15:16:25.854Z,100098.97
2023-02-24T15:18:56.105Z,100100.69
2023-02-24T15:21:38.776Z,100096.03
2023-02-24T15:24:34.642Z,100077.91
2023-02-24T15:27:31.231Z,100083.13
2023-02-24T15:30:21.334Z,100084.06
2023-02-24T15:32:48.908Z,100073.88
2023-02-24T15:35:24.855Z,100074.63
2023-02-24T15:37:54.872Z,100079.56
2023-02-24T15:40:25.562Z,100062.16
2023-02-24T15:42:59.092Z,100066.69
2023-02-24T15:45:26.515Z,100063.50
2023-02-24T15:47:57.188Z,100059.97
2023-02-24T15:50:25.328Z,100056.81
2023-02-24T15:52:52.838Z,100051.03
2023-02-24T15:55:21.873Z,100052.84
2023-02-24T15:57:58.472Z,100051.31
2023-02-24T16:00:26.229Z,100041.50
2023-02-24T16:02:53.828Z,100043.19
2023-02-24T16:05:21.372Z,100044.59
2023-02-24T16:07:49.718Z,100041.09
2023-02-24T16:10:26.186Z,100031.47
2023-02-24T16:13:00.318Z,100036.78
2023-02-24T16:15:38.000Z,100039.44
2023-02-24T16:18:14.206Z,100030.75
2023-02-24T16:20:43.222Z,100020.50
2023-02-24T16:23:11.017Z,100034.72
2023-02-24T16:26:03.063Z,100030.63
2023-02-24T16:28:41.239Z,100034.56
2023-02-24T16:31:13.485Z,100025.34
2023-02-24T16:33:54.107Z,100029.16
2023-02-24T16:36:24.657Z,100031.31
2023-02-24T16:38:55.327Z,100023.81
2023-02-24T16:41:28.020Z,100010.97
2023-02-24T16:43:58.895Z,100020.81
2023-02-24T16:46:33.065Z,100021.03
2023-02-24T16:49:03.778Z,100025.38
2023-02-24T16:51:35.706Z,100021.81
2023-02-24T16:54:03.712Z,100038.41
2023-02-24T16:56:33.678Z,100032.41
2023-02-24T16:59:04.561Z,100034.13
2023-02-24T17:01:39.195Z,100034.97
2023-02-24T17:04:28.338Z,100032.63
2023-02-24T17:06:59.262Z,100034.28
2023-02-24T17:09:38.233Z,100023.88
2023-02-24T17:12:09.683Z,100040.41
2023-02-24T17:14:37.282Z,100042.31
2023-02-24T17:17:04.916Z,100034.41
2023-02-24T17:19:32.420Z,100026.59
2023-02-24T17:21:59.893Z,100040.53
2023-02-24T17:24:28.648Z,100033.63
2023-02-24T17:27:00.592Z,100033.56
2023-02-24T17:29:28.152Z,100027.72
2023-02-24T17:31:55.883Z,100034.63
2023-02-24T17:34:24.326Z,100034.56
2023-02-24T17:36:53.378Z,100030.22
2023-02-24T17:39:20.885Z,100031.97
2023-02-24T17:41:48.399Z,100028.44
2023-02-24T17:44:16.008Z,100032.84
2023-02-24T17:46:43.512Z,100030.94
2023-02-24T17:49:11.020Z,100028.44
2023-02-24T17:51:38.485Z,100029.50
2023-02-24T17:54:06.604Z,100031.88
2023-02-24T17:56:34.076Z,100024.88
2023-02-24T17:59:01.621Z,100023.13
2023-02-24T18:01:29.461Z,100024.94
2023-02-24T18:04:00.010Z,100027.78
2023-02-24T18:06:27.544Z,100025.28
2023-02-24T18:08:55.160Z,100020.13
2023-02-24T18:11:22.676Z,100023.75
2023-02-24T18:13:52.710Z,100015.16
2023-02-24T18:16:20.734Z,100013.25
2023-02-24T18:18:48.528Z,100016.59
2023-02-24T18:21:16.107Z,100015.69
2023-02-24T18:23:43.565Z,100010.56
2023-02-24T18:26:23.890Z,100011.53
2023-02-24T18:28:55.591Z,100002.06
2023-02-24T18:31:25.269Z,100000.28
2023-02-24T18:33:56.446Z,100002.94
2023-02-24T18:36:25.040Z,100002.06
2023-02-24T18:38:53.334Z,100001.50
2023-02-24T18:41:24.244Z,100007.75
2023-02-24T18:44:45.277Z,100000.66
2023-02-24T18:47:14.163Z,99984.78
2023-02-24T18:49:42.151Z,99988.41
2023-02-24T18:52:11.609Z,99988.41
2023-02-24T18:54:39.453Z,99984.19
2023-02-24T18:57:07.107Z,99977.22
2023-02-24T18:59:34.612Z,99974.59
2023-02-24T19:02:02.195Z,99966.13
2023-02-24T19:04:29.705Z,99972.38
2023-02-24T19:06:57.222Z,99962.88
2023-02-24T19:09:24.761Z,99954.22
2023-02-24T19:11:54.227Z,99956.88
2023-02-24T19:14:22.768Z,99955.25
2023-02-24T19:16:50.336Z,99955.25
2023-02-24T19:19:17.956Z,99965.72
2023-02-24T19:21:45.882Z,99965.66
2023-02-24T19:24:14.161Z,99957.03
2023-02-24T19:26:43.960Z,99954.41
2023-02-24T19:29:12.382Z,99953.66
2023-02-24T19:31:40.532Z,99957.19
2023-02-24T19:34:12.067Z,99952.03
2023-02-24T19:36:41.202Z,99960.63
2023-02-24T19:39:10.955Z,99961.53
2023-02-24T19:41:38.611Z,99969.38
2023-02-24T19:44:06.192Z,99964.09
2023-02-24T19:46:34.365Z,99961.59
2023-02-24T19:49:02.327Z,99961.66
2023-02-24T19:51:47.800Z,99959.06
2023-02-24T19:54:16.271Z,99970.34
2023-02-24T19:56:44.283Z,99953.75
2023-02-24T19:59:11.811Z,99952.09
2023-02-24T20:01:39.470Z,99949.50
2023-02-24T20:04:07.301Z,99952.22
2023-02-24T20:06:40.327Z,99954.56
2023-02-24T20:09:15.524Z,99944.75
2023-02-24T20:11:45.178Z,99946.44
2023-02-24T20:14:13.105Z,99948.22
2023-02-24T20:16:42.090Z,99948.03
2023-02-24T20:19:11.601Z,99941.06
2023-02-24T20:21:42.149Z,99937.06
2023-02-24T20:24:14.133Z,99943.25
2023-02-24T20:31:15.667Z,99936.09
2023-02-24T20:34:13.216Z,99935.88
2023-02-24T20:43:39.189Z,99927.75
2023-02-24T20:46:25.578Z,99917.53
2023-02-24T20:49:00.898Z,99915.78
2023-02-24T20:51:47.613Z,99908.81
2023-02-24T20:54:16.559Z,99913.69
2023-02-24T20:56:45.906Z,99909.19
2023-02-24T20:59:18.764Z,99902.38
2023-02-24T21:01:48.585Z,99903.28
2023-02-24T21:04:19.883Z,99903.56
2023-02-24T21:06:49.011Z,99908.72
2023-02-24T21:09:16.975Z,99904.31
2023-02-24T21:11:49.822Z,99905.34
2023-02-24T21:14:23.099Z,99911.44
2023-02-24T21:17:03.231Z,99886.06
2023-02-24T21:19:38.284Z,99909.94
2023-02-24T21:22:26.316Z,99912.56
2023-02-24T21:25:01.427Z,99906.44
2023-02-24T21:27:28.993Z,99900.47
2023-02-24T21:29:56.768Z,99900.34
2023-02-24T21:32:26.552Z,99903.72
2023-02-24T21:34:54.351Z,99894.16
2023-02-24T21:37:21.928Z,99877.34
2023-02-24T21:39:54.722Z,99877.41
2023-02-24T22:14:57.632Z,99854.53
2023-02-24T22:18:07.422Z,99858.78
2023-02-24T22:20:54.284Z,99861.41
2023-02-24T22:27:20.506Z,99848.56
2023-02-24T22:31:00.717Z,99833.69
2023-02-24T22:34:01.547Z,99821.66
2023-02-24T22:36:33.332Z,99811.91
2023-02-24T22:39:02.078Z,99810.97
2023-02-24T22:41:32.320Z,99811.97
2023-02-24T22:44:02.829Z,99807.59
2023-02-24T22:46:33.364Z,99804.13
2023-02-24T22:49:01.413Z,99812.78
2023-02-24T22:51:29.050Z,99798.94
2023-02-24T22:53:56.802Z,99798.19
2023-02-24T22:56:27.166Z,99796.50
2023-02-24T22:58:56.649Z,99795.59
2023-02-24T23:01:29.889Z,99777.00
2023-02-24T23:04:02.225Z,99776.38
2023-02-24T23:06:30.808Z,99764.88
2023-02-24T23:08:59.982Z,99771.31
2023-02-24T23:11:36.948Z,99777.38
2023-02-24T23:14:10.013Z,99766.16
2023-02-24T23:16:38.850Z,99769.50
2023-02-24T23:19:13.058Z,99766.94
2023-02-24T23:21:43.157Z,99753.13
2023-02-24T23:24:12.580Z,99748.63
2023-02-24T23:26:43.722Z,99752.81
2023-02-24T23:29:13.919Z,99755.31
2023-02-24T23:31:44.650Z,99759.59
2023-02-24T23:34:13.209Z,99752.50
2023-02-24T23:36:43.928Z,99750.09
2023-02-24T23:39:14.097Z,99756.09
2023-02-24T23:41:44.191Z,99757.06
2023-02-24T23:44:12.607Z,99750.28
2023-02-24T23:46:41.844Z,99754.66
2023-02-24T23:49:09.776Z,99764.22
2023-02-24T23:51:53.002Z,99752.19
2023-02-24T23:54:20.657Z,99748.63
2023-02-24T23:56:48.229Z,99755.72
2023-02-24T23:59:16.087Z,99744.22
